sensor_id;sensor_type;location;lat;lon;timestamp;temperature;humidity
3416;DHT22;1721;51.238;9.562;2023-02-08T00:01:14;0.10;84.00
3416;DHT22;1721;51.238;9.562;2023-02-08T00:03:40;0.10;84.70
3416;DHT22;1721;51.238;9.562;2023-02-08T00:06:06;0.10;84.10
3416;DHT22;1721;51.238;9.562;2023-02-08T00:08:33;0.10;84.00
3416;DHT22;1721;51.238;9.562;2023-02-08T00:10:59;0.10;83.70
3416;DHT22;1721;51.238;9.562;2023-02-08T00:13:25;0.00;84.00
3416;DHT22;1721;51.238;9.562;2023-02-08T00:15:52;0.00;83.70
3416;DHT22;1721;51.238;9.562;2023-02-08T00:18:18;0.00;83.70
3416;DHT22;1721;51.238;9.562;2023-02-08T00:20:44;0.00;83.60
3416;DHT22;1721;51.238;9.562;2023-02-08T00:23:10;0.00;83.40
3416;DHT22;1721;51.238;9.562;2023-02-08T00:25:36;0.00;83.60
3416;DHT22;1721;51.238;9.562;2023-02-08T00:28:02;0.00;83.70
3416;DHT22;1721;51.238;9.562;2023-02-08T00:30:28;0.00;83.90
3416;DHT22;1721;51.238;9.562;2023-02-08T00:32:54;-0.10;84.20
3416;DHT22;1721;51.238;9.562;2023-02-08T00:35:19;-0.20;84.50
3416;DHT22;1721;51.238;9.562;2023-02-08T00:37:45;-0.30;84.30
3416;DHT22;1721;51.238;9.562;2023-02-08T00:40:11;-0.60;84.20
3416;DHT22;1721;51.238;9.562;2023-02-08T00:42:36;-0.60;85.00
3416;DHT22;1721;51.238;9.562;2023-02-08T00:45:02;-0.50;84.80
3416;DHT22;1721;51.238;9.562;2023-02-08T00:47:28;-0.40;84.30
3416;DHT22;1721;51.238;9.562;2023-02-08T00:49:53;-0.40;83.90
3416;DHT22;1721;51.238;9.562;2023-02-08T00:52:20;-0.40;83.60
3416;DHT22;1721;51.238;9.562;2023-02-08T00:54:45;-0.40;83.60
3416;DHT22;1721;51.238;9.562;2023-02-08T00:57:11;-0.30;83.50
3416;DHT22;1721;51.238;9.562;2023-02-08T00:59:37;-0.30;83.70
3416;DHT22;1721;51.238;9.562;2023-02-08T01:02:03;-0.30;83.70
3416;DHT22;1721;51.238;9.562;2023-02-08T01:04:29;-0.30;83.70
3416;DHT22;1721;51.238;9.562;2023-02-08T01:06:55;-0.30;83.90
3416;DHT22;1721;51.238;9.562;2023-02-08T01:09:20;-0.30;83.70
3416;DHT22;1721;51.238;9.562;2023-02-08T01:11:46;-0.20;83.70
3416;DHT22;1721;51.238;9.562;2023-02-08T01:14:12;-0.20;83.20
3416;DHT22;1721;51.238;9.562;2023-02-08T01:16:37;-0.20;83.00
3416;DHT22;1721;51.238;9.562;2023-02-08T01:19:04;-0.20;82.80
3416;DHT22;1721;51.238;9.562;2023-02-08T01:21:38;-0.20;83.00
3416;DHT22;1721;51.238;9.562;2023-02-08T01:24:04;-0.10;83.10
3416;DHT22;1721;51.238;9.562;2023-02-08T01:26:31;-0.10;83.00
3416;DHT22;1721;51.238;9.562;2023-02-08T01:28:57;-0.20;83.20
3416;DHT22;1721;51.238;9.562;2023-02-08T01:31:35;-0.30;83.70
3416;DHT22;1721;51.238;9.562;2023-02-08T01:34:01;-0.50;84.10
3416;DHT22;1721;51.238;9.562;2023-02-08T01:36:28;-0.60;84.60
3416;DHT22;1721;51.238;9.562;2023-02-08T01:38:55;-0.50;84.50
3416;DHT22;1721;51.238;9.562;2023-02-08T01:41:24;-0.40;84.30
3416;DHT22;1721;51.238;9.562;2023-02-08T01:46:33;-0.40;83.90
3416;DHT22;1721;51.238;9.562;2023-02-08T01:49:09;-0.40;83.90
3416;DHT22;1721;51.238;9.562;2023-02-08T01:51:39;-0.40;83.70
3416;DHT22;1721;51.238;9.562;2023-02-08T01:54:07;-0.40;83.50
3416;DHT22;1721;51.238;9.562;2023-02-08T01:56:37;-0.40;83.40
3416;DHT22;1721;51.238;9.562;2023-02-08T01:59:09;-0.40;83.20
3416;DHT22;1721;51.238;9.562;2023-02-08T02:01:37;-0.40;83.20
3416;DHT22;1721;51.238;9.562;2023-02-08T02:04:04;-0.50;83.30
3416;DHT22;1721;51.238;9.562;2023-02-08T02:06:37;-0.50;83.60
3416;DHT22;1721;51.238;9.562;2023-02-08T02:11:30;-0.50;84.10
3416;DHT22;1721;51.238;9.562;2023-02-08T02:13:56;-0.50;83.90
3416;DHT22;1721;51.238;9.562;2023-02-08T02:16:22;-0.60;83.90
3416;DHT22;1721;51.238;9.562;2023-02-08T02:18:48;-0.60;84.00
3416;DHT22;1721;51.238;9.562;2023-02-08T02:24:05;-0.60;84.00
3416;DHT22;1721;51.238;9.562;2023-02-08T02:27:00;-0.70;84.30
3416;DHT22;1721;51.238;9.562;2023-02-08T02:32:53;-0.80;84.90
3416;DHT22;1721;51.238;9.562;2023-02-08T02:38:07;-0.80;85.10
3416;DHT22;1721;51.238;9.562;2023-02-08T02:43:31;-0.70;85.00
3416;DHT22;1721;51.238;9.562;2023-02-08T02:48:49;-0.70;85.10
3416;DHT22;1721;51.238;9.562;2023-02-08T02:51:25;-0.70;85.20
3416;DHT22;1721;51.238;9.562;2023-02-08T02:53:57;-0.70;85.30
3416;DHT22;1721;51.238;9.562;2023-02-08T02:56:28;-0.70;85.40
3416;DHT22;1721;51.238;9.562;2023-02-08T02:58:57;-0.70;85.50
3416;DHT22;1721;51.238;9.562;2023-02-08T03:01:23;-0.70;85.40
3416;DHT22;1721;51.238;9.562;2023-02-08T03:03:51;-0.70;85.40
3416;DHT22;1721;51.238;9.562;2023-02-08T03:07:09;-0.80;85.40
3416;DHT22;1721;51.238;9.562;2023-02-08T03:09:24;-0.80;85.50
3416;DHT22;1721;51.238;9.562;2023-02-08T03:12:01;-0.80;85.50
3416;DHT22;1721;51.238;9.562;2023-02-08T03:17:55;-0.80;85.40
3416;DHT22;1721;51.238;9.562;2023-02-08T03:20:27;-0.80;85.80
3416;DHT22;1721;51.238;9.562;2023-02-08T03:23:23;-0.70;85.80
3416;DHT22;1721;51.238;9.562;2023-02-08T03:26:04;-0.80;85.70
3416;DHT22;1721;51.238;9.562;2023-02-08T03:31:32;-0.90;86.10
3416;DHT22;1721;51.238;9.562;2023-02-08T03:34:05;-0.90;85.80
3416;DHT22;1721;51.238;9.562;2023-02-08T03:36:41;-0.90;85.60
3416;DHT22;1721;51.238;9.562;2023-02-08T03:39:12;-0.90;85.60
3416;DHT22;1721;51.238;9.562;2023-02-08T03:41:39;-0.90;85.60
3416;DHT22;1721;51.238;9.562;2023-02-08T03:44:21;-0.90;85.50
3416;DHT22;1721;51.238;9.562;2023-02-08T03:46:52;-0.90;85.50
3416;DHT22;1721;51.238;9.562;2023-02-08T03:49:22;-0.90;85.70
3416;DHT22;1721;51.238;9.562;2023-02-08T03:51:50;-1.20;86.50
3416;DHT22;1721;51.238;9.562;2023-02-08T03:54:21;-1.20;86.90
3416;DHT22;1721;51.238;9.562;2023-02-08T03:59:22;-1.10;86.70
3416;DHT22;1721;51.238;9.562;2023-02-08T04:02:00;-1.00;86.40
3416;DHT22;1721;51.238;9.562;2023-02-08T04:04:30;-1.00;86.50
3416;DHT22;1721;51.238;9.562;2023-02-08T04:06:56;-1.00;86.50
3416;DHT22;1721;51.238;9.562;2023-02-08T04:09:22;-1.00;86.50
3416;DHT22;1721;51.238;9.562;2023-02-08T04:11:48;-0.90;86.50
3416;DHT22;1721;51.238;9.562;2023-02-08T04:14:13;-0.90;86.50
3416;DHT22;1721;51.238;9.562;2023-02-08T04:16:39;-1.10;87.50
3416;DHT22;1721;51.238;9.562;2023-02-08T04:19:04;-1.20;87.90
3416;DHT22;1721;51.238;9.562;2023-02-08T04:21:31;-1.10;87.60
3416;DHT22;1721;51.238;9.562;2023-02-08T04:23:56;-1.10;87.50
3416;DHT22;1721;51.238;9.562;2023-02-08T04:26:22;-1.00;87.30
3416;DHT22;1721;51.238;9.562;2023-02-08T04:28:47;-1.00;87.20
3416;DHT22;1721;51.238;9.562;2023-02-08T04:31:13;-1.20;87.10
3416;DHT22;1721;51.238;9.562;2023-02-08T04:33:38;-1.20;87.00
3416;DHT22;1721;51.238;9.562;2023-02-08T04:36:04;-1.20;87.10
3416;DHT22;1721;51.238;9.562;2023-02-08T04:38:30;-1.10;86.90
3416;DHT22;1721;51.238;9.562;2023-02-08T04:40:55;-1.10;86.60
3416;DHT22;1721;51.238;9.562;2023-02-08T04:43:21;-1.10;86.40
3416;DHT22;1721;51.238;9.562;2023-02-08T04:45:51;-1.10;86.10
3416;DHT22;1721;51.238;9.562;2023-02-08T04:48:17;-1.10;86.10
3416;DHT22;1721;51.238;9.562;2023-02-08T04:50:42;-1.10;86.30
3416;DHT22;1721;51.238;9.562;2023-02-08T04:53:08;-1.10;86.40
3416;DHT22;1721;51.238;9.562;2023-02-08T04:55:34;-1.10;86.40
3416;DHT22;1721;51.238;9.562;2023-02-08T04:57:59;-1.10;86.70
3416;DHT22;1721;51.238;9.562;2023-02-08T05:00:25;-1.10;86.90
3416;DHT22;1721;51.238;9.562;2023-02-08T05:02:53;-1.10;86.90
3416;DHT22;1721;51.238;9.562;2023-02-08T05:05:18;-1.00;86.90
3416;DHT22;1721;51.238;9.562;2023-02-08T05:07:44;-1.00;86.70
3416;DHT22;1721;51.238;9.562;2023-02-08T05:10:10;-1.00;86.40
3416;DHT22;1721;51.238;9.562;2023-02-08T05:12:35;-1.00;86.40
3416;DHT22;1721;51.238;9.562;2023-02-08T05:15:01;-1.00;86.10
3416;DHT22;1721;51.238;9.562;2023-02-08T05:17:26;-1.20;86.50
3416;DHT22;1721;51.238;9.562;2023-02-08T05:19:52;-1.30;86.80
3416;DHT22;1721;51.238;9.562;2023-02-08T05:22:18;-1.20;86.70
3416;DHT22;1721;51.238;9.562;2023-02-08T05:24:43;-1.10;87.30
3416;DHT22;1721;51.238;9.562;2023-02-08T05:27:09;-1.10;86.30
3416;DHT22;1721;51.238;9.562;2023-02-08T05:29:34;-1.10;86.00
3416;DHT22;1721;51.238;9.562;2023-02-08T05:32:00;-1.10;86.10
3416;DHT22;1721;51.238;9.562;2023-02-08T05:34:25;-1.10;86.00
3416;DHT22;1721;51.238;9.562;2023-02-08T05:36:51;-1.10;85.80
3416;DHT22;1721;51.238;9.562;2023-02-08T05:39:16;-1.10;85.60
3416;DHT22;1721;51.238;9.562;2023-02-08T05:41:42;-1.10;85.80
3416;DHT22;1721;51.238;9.562;2023-02-08T05:44:07;-1.10;85.80
3416;DHT22;1721;51.238;9.562;2023-02-08T05:46:33;-1.20;85.80
3416;DHT22;1721;51.238;9.562;2023-02-08T05:49:00;-1.30;85.90
3416;DHT22;1721;51.238;9.562;2023-02-08T05:51:26;-1.20;86.60
3416;DHT22;1721;51.238;9.562;2023-02-08T05:53:51;-1.30;86.10
3416;DHT22;1721;51.238;9.562;2023-02-08T05:56:17;-1.40;86.40
3416;DHT22;1721;51.238;9.562;2023-02-08T05:58:43;-1.30;86.60
3416;DHT22;1721;51.238;9.562;2023-02-08T06:01:10;-1.30;86.40
3416;DHT22;1721;51.238;9.562;2023-02-08T06:03:36;-1.20;86.10
3416;DHT22;1721;51.238;9.562;2023-02-08T06:06:02;-1.20;86.00
3416;DHT22;1721;51.238;9.562;2023-02-08T06:08:28;-1.20;85.90
3416;DHT22;1721;51.238;9.562;2023-02-08T06:10:53;-1.10;85.60
3416;DHT22;1721;51.238;9.562;2023-02-08T06:13:19;-1.20;85.60
3416;DHT22;1721;51.238;9.562;2023-02-08T06:15:45;-1.20;85.60
3416;DHT22;1721;51.238;9.562;2023-02-08T06:18:11;-1.10;85.50
3416;DHT22;1721;51.238;9.562;2023-02-08T06:20:37;-1.10;85.50
3416;DHT22;1721;51.238;9.562;2023-02-08T06:23:03;-1.10;85.40
3416;DHT22;1721;51.238;9.562;2023-02-08T06:25:29;-1.10;85.40
3416;DHT22;1721;51.238;9.562;2023-02-08T06:27:55;-1.10;85.40
3416;DHT22;1721;51.238;9.562;2023-02-08T06:30:20;-1.10;85.40
3416;DHT22;1721;51.238;9.562;2023-02-08T06:32:46;-1.20;85.70
3416;DHT22;1721;51.238;9.562;2023-02-08T06:35:12;-1.20;85.50
3416;DHT22;1721;51.238;9.562;2023-02-08T06:37:38;-1.30;85.40
3416;DHT22;1721;51.238;9.562;2023-02-08T06:40:04;-1.30;86.10
3416;DHT22;1721;51.238;9.562;2023-02-08T06:42:29;-1.30;86.40
3416;DHT22;1721;51.238;9.562;2023-02-08T06:44:55;-1.30;86.10
3416;DHT22;1721;51.238;9.562;2023-02-08T06:47:23;-1.30;86.00
3416;DHT22;1721;51.238;9.562;2023-02-08T06:49:49;-1.30;85.80
3416;DHT22;1721;51.238;9.562;2023-02-08T06:52:15;-1.40;86.20
3416;DHT22;1721;51.238;9.562;2023-02-08T06:54:40;-1.20;86.60
3416;DHT22;1721;51.238;9.562;2023-02-08T06:57:06;-1.10;86.10
3416;DHT22;1721;51.238;9.562;2023-02-08T06:59:32;-1.00;85.70
3416;DHT22;1721;51.238;9.562;2023-02-08T07:01:58;-0.90;85.60
3416;DHT22;1721;51.238;9.562;2023-02-08T07:04:24;-0.80;85.60
3416;DHT22;1721;51.238;9.562;2023-02-08T07:06:49;-0.80;85.10
3416;DHT22;1721;51.238;9.562;2023-02-08T07:09:15;-0.80;84.90
3416;DHT22;1721;51.238;9.562;2023-02-08T07:11:41;-0.80;84.80
3416;DHT22;1721;51.238;9.562;2023-02-08T07:14:09;-1.10;84.50
3416;DHT22;1721;51.238;9.562;2023-02-08T07:16:36;-1.00;85.80
3416;DHT22;1721;51.238;9.562;2023-02-08T07:19:01;-0.90;85.20
3416;DHT22;1721;51.238;9.562;2023-02-08T07:21:27;-0.80;85.00
3416;DHT22;1721;51.238;9.562;2023-02-08T07:23:52;-0.80;84.80
3416;DHT22;1721;51.238;9.562;2023-02-08T07:26:18;-1.30;85.90
3416;DHT22;1721;51.238;9.562;2023-02-08T07:28:43;-1.20;86.10
3416;DHT22;1721;51.238;9.562;2023-02-08T07:31:11;-1.60;87.30
3416;DHT22;1721;51.238;9.562;2023-02-08T07:33:37;-1.90;87.90
3416;DHT22;1721;51.238;9.562;2023-02-08T07:36:03;-1.70;88.20
3416;DHT22;1721;51.238;9.562;2023-02-08T07:38:30;-1.60;89.00
3416;DHT22;1721;51.238;9.562;2023-02-08T07:41:04;-1.20;88.20
3416;DHT22;1721;51.238;9.562;2023-02-08T07:43:30;-0.80;87.70
3416;DHT22;1721;51.238;9.562;2023-02-08T07:45:57;-0.60;87.00
3416;DHT22;1721;51.238;9.562;2023-02-08T07:48:23;-0.40;86.60
3416;DHT22;1721;51.238;9.562;2023-02-08T07:50:48;-0.30;86.40
3416;DHT22;1721;51.238;9.562;2023-02-08T07:53:14;-0.10;86.30
3416;DHT22;1721;51.238;9.562;2023-02-08T07:55:40;0.10;86.00
3416;DHT22;1721;51.238;9.562;2023-02-08T07:58:06;0.30;85.60
3416;DHT22;1721;51.238;9.562;2023-02-08T08:00:32;0.50;85.00
3416;DHT22;1721;51.238;9.562;2023-02-08T08:02:57;0.50;84.80
3416;DHT22;1721;51.238;9.562;2023-02-08T08:05:23;0.50;84.60
3416;DHT22;1721;51.238;9.562;2023-02-08T08:07:48;0.40;84.20
3416;DHT22;1721;51.238;9.562;2023-02-08T08:10:14;0.50;85.00
3416;DHT22;1721;51.238;9.562;2023-02-08T08:12:39;0.60;84.90
3416;DHT22;1721;51.238;9.562;2023-02-08T08:15:05;0.80;84.90
3416;DHT22;1721;51.238;9.562;2023-02-08T08:17:31;1.00;84.60
3416;DHT22;1721;51.238;9.562;2023-02-08T08:19:56;1.10;84.00
3416;DHT22;1721;51.238;9.562;2023-02-08T08:22:22;1.30;82.80
3416;DHT22;1721;51.238;9.562;2023-02-08T08:24:47;1.40;81.60
3416;DHT22;1721;51.238;9.562;2023-02-08T08:27:13;1.30;79.80
3416;DHT22;1721;51.238;9.562;2023-02-08T08:29:39;1.20;79.60
3416;DHT22;1721;51.238;9.562;2023-02-08T08:32:06;1.10;79.70
3416;DHT22;1721;51.238;9.562;2023-02-08T08:34:31;1.20;80.20
3416;DHT22;1721;51.238;9.562;2023-02-08T08:36:58;1.40;80.30
3416;DHT22;1721;51.238;9.562;2023-02-08T08:39:24;1.50;81.10
3416;DHT22;1721;51.238;9.562;2023-02-08T08:41:52;1.40;82.00
3416;DHT22;1721;51.238;9.562;2023-02-08T08:44:18;1.50;82.40
3416;DHT22;1721;51.238;9.562;2023-02-08T08:46:43;1.50;83.10
3416;DHT22;1721;51.238;9.562;2023-02-08T08:49:09;1.60;83.10
3416;DHT22;1721;51.238;9.562;2023-02-08T08:51:34;1.70;83.50
3416;DHT22;1721;51.238;9.562;2023-02-08T08:54:04;1.80;83.40
3416;DHT22;1721;51.238;9.562;2023-02-08T08:56:30;1.90;83.60
3416;DHT22;1721;51.238;9.562;2023-02-08T08:58:56;2.10;83.80
3416;DHT22;1721;51.238;9.562;2023-02-08T09:01:22;2.10;83.50
3416;DHT22;1721;51.238;9.562;2023-02-08T09:03:48;2.00;83.50
3416;DHT22;1721;51.238;9.562;2023-02-08T09:06:13;2.00;83.70
3416;DHT22;1721;51.238;9.562;2023-02-08T09:08:39;1.90;84.10
3416;DHT22;1721;51.238;9.562;2023-02-08T09:11:10;1.90;84.90
3416;DHT22;1721;51.238;9.562;2023-02-08T09:13:37;2.10;83.90
3416;DHT22;1721;51.238;9.562;2023-02-08T09:16:14;2.20;84.30
3416;DHT22;1721;51.238;9.562;2023-02-08T09:18:40;2.00;84.80
3416;DHT22;1721;51.238;9.562;2023-02-08T09:21:11;2.00;85.60
3416;DHT22;1721;51.238;9.562;2023-02-08T09:23:37;1.80;85.40
3416;DHT22;1721;51.238;9.562;2023-02-08T09:26:04;1.60;84.50
3416;DHT22;1721;51.238;9.562;2023-02-08T09:28:30;1.70;85.20
3416;DHT22;1721;51.238;9.562;2023-02-08T09:30:55;1.80;83.90
3416;DHT22;1721;51.238;9.562;2023-02-08T09:33:21;1.90;84.00
3416;DHT22;1721;51.238;9.562;2023-02-08T09:35:47;1.80;83.70
3416;DHT22;1721;51.238;9.562;2023-02-08T09:38:12;1.90;83.30
3416;DHT22;1721;51.238;9.562;2023-02-08T09:40:42;1.90;83.80
3416;DHT22;1721;51.238;9.562;2023-02-08T09:43:21;2.00;83.70
3416;DHT22;1721;51.238;9.562;2023-02-08T09:46:10;1.90;82.00
3416;DHT22;1721;51.238;9.562;2023-02-08T09:48:39;2.10;82.70
3416;DHT22;1721;51.238;9.562;2023-02-08T09:54:08;1.90;83.70
3416;DHT22;1721;51.238;9.562;2023-02-08T09:56:40;2.10;84.20
3416;DHT22;1721;51.238;9.562;2023-02-08T09:59:15;2.30;85.10
3416;DHT22;1721;51.238;9.562;2023-02-08T10:01:41;2.20;85.30
3416;DHT22;1721;51.238;9.562;2023-02-08T10:04:23;2.30;85.50
3416;DHT22;1721;51.238;9.562;2023-02-08T10:06:50;2.20;85.10
3416;DHT22;1721;51.238;9.562;2023-02-08T10:09:20;2.40;84.50
3416;DHT22;1721;51.238;9.562;2023-02-08T10:11:48;2.50;83.90
3416;DHT22;1721;51.238;9.562;2023-02-08T10:14:21;2.60;83.80
3416;DHT22;1721;51.238;9.562;2023-02-08T10:17:11;2.50;83.20
3416;DHT22;1721;51.238;9.562;2023-02-08T10:28:01;2.90;82.00
3416;DHT22;1721;51.238;9.562;2023-02-08T10:31:01;3.00;82.80
3416;DHT22;1721;51.238;9.562;2023-02-08T10:36:47;2.90;83.60
3416;DHT22;1721;51.238;9.562;2023-02-08T10:39:15;3.00;83.60
3416;DHT22;1721;51.238;9.562;2023-02-08T10:41:43;3.30;83.90
3416;DHT22;1721;51.238;9.562;2023-02-08T10:44:19;3.30;82.80
3416;DHT22;1721;51.238;9.562;2023-02-08T10:47:08;3.30;82.90
3416;DHT22;1721;51.238;9.562;2023-02-08T10:49:48;3.20;83.00
3416;DHT22;1721;51.238;9.562;2023-02-08T10:52:17;3.30;83.50
3416;DHT22;1721;51.238;9.562;2023-02-08T10:54:42;3.30;84.20
3416;DHT22;1721;51.238;9.562;2023-02-08T10:57:19;3.30;83.50
3416;DHT22;1721;51.238;9.562;2023-02-08T10:59:50;3.50;80.90
3416;DHT22;1721;51.238;9.562;2023-02-08T11:02:33;3.50;80.60
3416;DHT22;1721;51.238;9.562;2023-02-08T11:05:12;3.70;80.20
3416;DHT22;1721;51.238;9.562;2023-02-08T11:07:38;3.60;80.40
3416;DHT22;1721;51.238;9.562;2023-02-08T11:10:33;3.60;81.20
3416;DHT22;1721;51.238;9.562;2023-02-08T11:13:06;3.40;80.50
3416;DHT22;1721;51.238;9.562;2023-02-08T11:15:42;3.60;81.20
3416;DHT22;1721;51.238;9.562;2023-02-08T11:18:24;3.60;82.10
3416;DHT22;1721;51.238;9.562;2023-02-08T11:20:55;3.40;81.70
3416;DHT22;1721;51.238;9.562;2023-02-08T11:23:22;3.70;80.30
3416;DHT22;1721;51.238;9.562;2023-02-08T11:25:48;4.00;79.00
3416;DHT22;1721;51.238;9.562;2023-02-08T11:30:55;4.10;78.10
3416;DHT22;1721;51.238;9.562;2023-02-08T11:33:21;3.90;78.30
3416;DHT22;1721;51.238;9.562;2023-02-08T11:36:07;4.00;76.80
3416;DHT22;1721;51.238;9.562;2023-02-08T11:38:40;3.90;77.00
3416;DHT22;1721;51.238;9.562;2023-02-08T11:41:14;4.10;77.60
3416;DHT22;1721;51.238;9.562;2023-02-08T11:43:40;4.20;76.00
3416;DHT22;1721;51.238;9.562;2023-02-08T11:46:06;4.30;76.40
3416;DHT22;1721;51.238;9.562;2023-02-08T11:48:47;4.40;77.50
3416;DHT22;1721;51.238;9.562;2023-02-08T11:51:24;4.60;77.10
3416;DHT22;1721;51.238;9.562;2023-02-08T11:53:51;4.60;76.00
3416;DHT22;1721;51.238;9.562;2023-02-08T11:56:20;4.50;75.00
3416;DHT22;1721;51.238;9.562;2023-02-08T12:01:36;4.70;75.40
3416;DHT22;1721;51.238;9.562;2023-02-08T12:04:04;4.80;73.90
3416;DHT22;1721;51.238;9.562;2023-02-08T12:06:41;4.60;61.80
3416;DHT22;1721;51.238;9.562;2023-02-08T12:09:22;4.30;58.80
3416;DHT22;1721;51.238;9.562;2023-02-08T12:14:55;4.80;65.90
3416;DHT22;1721;51.238;9.562;2023-02-08T12:25:29;5.00;62.00
3416;DHT22;1721;51.238;9.562;2023-02-08T12:53:26;4.60;53.70
3416;DHT22;1721;51.238;9.562;2023-02-08T12:55:56;4.60;54.00
3416;DHT22;1721;51.238;9.562;2023-02-08T12:58:52;4.70;53.60
3416;DHT22;1721;51.238;9.562;2023-02-08T13:01:27;4.70;54.80
3416;DHT22;1721;51.238;9.562;2023-02-08T13:06:48;4.80;54.90
3416;DHT22;1721;51.238;9.562;2023-02-08T13:09:31;4.70;52.60
3416;DHT22;1721;51.238;9.562;2023-02-08T13:12:18;4.90;53.90
3416;DHT22;1721;51.238;9.562;2023-02-08T13:15:06;4.90;53.20
3416;DHT22;1721;51.238;9.562;2023-02-08T13:17:53;5.00;52.70
3416;DHT22;1721;51.238;9.562;2023-02-08T13:20:42;4.90;53.90
3416;DHT22;1721;51.238;9.562;2023-02-08T13:23:25;5.00;53.00
3416;DHT22;1721;51.238;9.562;2023-02-08T13:25:54;5.00;52.60
3416;DHT22;1721;51.238;9.562;2023-02-08T13:28:23;4.90;53.50
3416;DHT22;1721;51.238;9.562;2023-02-08T13:31:01;4.70;54.20
3416;DHT22;1721;51.238;9.562;2023-02-08T13:33:38;4.80;53.80
3416;DHT22;1721;51.238;9.562;2023-02-08T13:38:53;4.90;53.50
3416;DHT22;1721;51.238;9.562;2023-02-08T13:41:21;4.80;55.60
3416;DHT22;1721;51.238;9.562;2023-02-08T13:43:57;4.90;55.10
3416;DHT22;1721;51.238;9.562;2023-02-08T13:46:27;5.00;55.20
3416;DHT22;1721;51.238;9.562;2023-02-08T13:48:59;4.90;54.60
3416;DHT22;1721;51.238;9.562;2023-02-08T13:59:24;4.80;54.20
3416;DHT22;1721;51.238;9.562;2023-02-08T14:07:55;5.00;53.70
3416;DHT22;1721;51.238;9.562;2023-02-08T14:13:28;4.90;52.70
3416;DHT22;1721;51.238;9.562;2023-02-08T14:18:56;4.80;54.00
3416;DHT22;1721;51.238;9.562;2023-02-08T14:21:32;4.80;52.50
3416;DHT22;1721;51.238;9.562;2023-02-08T14:24:06;4.80;52.70
3416;DHT22;1721;51.238;9.562;2023-02-08T14:26:32;4.80;53.80
3416;DHT22;1721;51.238;9.562;2023-02-08T14:29:00;4.80;52.80
3416;DHT22;1721;51.238;9.562;2023-02-08T14:31:38;4.70;52.40
3416;DHT22;1721;51.238;9.562;2023-02-08T14:34:05;4.70;53.60
3416;DHT22;1721;51.238;9.562;2023-02-08T14:36:35;4.70;52.40
3416;DHT22;1721;51.238;9.562;2023-02-08T14:39:25;4.70;51.80
3416;DHT22;1721;51.238;9.562;2023-02-08T14:50:15;4.80;52.50
3416;DHT22;1721;51.238;9.562;2023-02-08T14:52:51;4.70;52.00
3416;DHT22;1721;51.238;9.562;2023-02-08T14:55:24;4.50;52.80
3416;DHT22;1721;51.238;9.562;2023-02-08T14:57:55;4.60;52.40
3416;DHT22;1721;51.238;9.562;2023-02-08T15:00:29;4.80;53.10
3416;DHT22;1721;51.238;9.562;2023-02-08T15:02:56;5.00;53.50
3416;DHT22;1721;51.238;9.562;2023-02-08T15:05:28;4.90;53.10
3416;DHT22;1721;51.238;9.562;2023-02-08T15:07:56;4.70;53.20
3416;DHT22;1721;51.238;9.562;2023-02-08T15:10:23;4.70;53.50
3416;DHT22;1721;51.238;9.562;2023-02-08T15:12:56;4.70;54.20
3416;DHT22;1721;51.238;9.562;2023-02-08T15:15:42;4.70;53.40
3416;DHT22;1721;51.238;9.562;2023-02-08T15:18:22;4.70;54.60
3416;DHT22;1721;51.238;9.562;2023-02-08T15:21:02;4.80;55.50
3416;DHT22;1721;51.238;9.562;2023-02-08T15:23:28;5.20;55.60
3416;DHT22;1721;51.238;9.562;2023-02-08T15:25:56;5.20;55.50
3416;DHT22;1721;51.238;9.562;2023-02-08T15:28:24;5.20;54.40
3416;DHT22;1721;51.238;9.562;2023-02-08T15:30:59;4.80;54.70
3416;DHT22;1721;51.238;9.562;2023-02-08T15:33:26;4.80;55.60
3416;DHT22;1721;51.238;9.562;2023-02-08T15:36:05;4.60;55.60
3416;DHT22;1721;51.238;9.562;2023-02-08T15:38:32;4.80;56.40
3416;DHT22;1721;51.238;9.562;2023-02-08T15:41:05;4.90;57.00
3416;DHT22;1721;51.238;9.562;2023-02-08T15:43:32;4.80;55.90
3416;DHT22;1721;51.238;9.562;2023-02-08T15:46:00;4.70;55.20
3416;DHT22;1721;51.238;9.562;2023-02-08T15:48:26;4.80;55.90
3416;DHT22;1721;51.238;9.562;2023-02-08T15:50:53;5.10;56.60
3416;DHT22;1721;51.238;9.562;2023-02-08T15:53:19;5.10;58.10
3416;DHT22;1721;51.238;9.562;2023-02-08T15:55:54;5.30;59.10
3416;DHT22;1721;51.238;9.562;2023-02-08T15:58:28;5.30;60.00
3416;DHT22;1721;51.238;9.562;2023-02-08T16:00:57;5.30;59.90
3416;DHT22;1721;51.238;9.562;2023-02-08T16:03:24;5.30;60.70
3416;DHT22;1721;51.238;9.562;2023-02-08T16:05:53;5.20;61.40
3416;DHT22;1721;51.238;9.562;2023-02-08T16:08:25;5.10;62.20
3416;DHT22;1721;51.238;9.562;2023-02-08T16:11:23;4.90;62.90
3416;DHT22;1721;51.238;9.562;2023-02-08T16:13:51;4.90;63.50
3416;DHT22;1721;51.238;9.562;2023-02-08T16:16:24;4.70;65.20
3416;DHT22;1721;51.238;9.562;2023-02-08T16:21:44;4.40;67.00
3416;DHT22;1721;51.238;9.562;2023-02-08T16:26:50;4.20;67.70
3416;DHT22;1721;51.238;9.562;2023-02-08T16:29:26;4.10;67.90
3416;DHT22;1721;51.238;9.562;2023-02-08T16:32:00;4.00;68.40
3416;DHT22;1721;51.238;9.562;2023-02-08T16:34:29;3.90;69.20
3416;DHT22;1721;51.238;9.562;2023-02-08T16:36:55;3.80;69.40
3416;DHT22;1721;51.238;9.562;2023-02-08T16:42:35;3.60;70.10
3416;DHT22;1721;51.238;9.562;2023-02-08T16:47:42;3.30;73.00
3416;DHT22;1721;51.238;9.562;2023-02-08T16:50:20;3.10;73.50
3416;DHT22;1721;51.238;9.562;2023-02-08T16:52:54;3.10;73.10
3416;DHT22;1721;51.238;9.562;2023-02-08T16:55:25;3.00;72.80
3416;DHT22;1721;51.238;9.562;2023-02-08T16:57:52;3.00;72.00
3416;DHT22;1721;51.238;9.562;2023-02-08T17:00:29;2.90;72.60
3416;DHT22;1721;51.238;9.562;2023-02-08T17:02:55;2.90;72.80
3416;DHT22;1721;51.238;9.562;2023-02-08T17:05:24;2.80;73.00
3416;DHT22;1721;51.238;9.562;2023-02-08T17:07:50;2.70;73.60
3416;DHT22;1721;51.238;9.562;2023-02-08T17:10:20;2.60;74.30
3416;DHT22;1721;51.238;9.562;2023-02-08T17:12:46;2.50;74.70
3416;DHT22;1721;51.238;9.562;2023-02-08T17:15:12;2.50;75.70
3416;DHT22;1721;51.238;9.562;2023-02-08T17:17:37;2.40;75.60
3416;DHT22;1721;51.238;9.562;2023-02-08T17:20:05;2.40;76.10
3416;DHT22;1721;51.238;9.562;2023-02-08T17:22:31;2.30;76.00
3416;DHT22;1721;51.238;9.562;2023-02-08T17:24:56;2.20;75.90
3416;DHT22;1721;51.238;9.562;2023-02-08T17:27:22;2.10;76.60
3416;DHT22;1721;51.238;9.562;2023-02-08T17:29:48;2.10;77.00
3416;DHT22;1721;51.238;9.562;2023-02-08T17:32:14;2.10;76.70
3416;DHT22;1721;51.238;9.562;2023-02-08T17:34:39;2.10;76.30
3416;DHT22;1721;51.238;9.562;2023-02-08T17:37:05;2.00;75.40
3416;DHT22;1721;51.238;9.562;2023-02-08T17:39:31;2.00;75.00
3416;DHT22;1721;51.238;9.562;2023-02-08T17:41:57;2.00;74.80
3416;DHT22;1721;51.238;9.562;2023-02-08T17:44:23;1.90;75.20
3416;DHT22;1721;51.238;9.562;2023-02-08T17:46:48;1.70;76.30
3416;DHT22;1721;51.238;9.562;2023-02-08T17:49:14;1.70;76.80
3416;DHT22;1721;51.238;9.562;2023-02-08T17:51:40;1.70;77.10
3416;DHT22;1721;51.238;9.562;2023-02-08T17:54:06;1.60;77.50
3416;DHT22;1721;51.238;9.562;2023-02-08T17:56:31;1.60;77.90
3416;DHT22;1721;51.238;9.562;2023-02-08T17:59:00;1.50;77.50
3416;DHT22;1721;51.238;9.562;2023-02-08T18:01:28;1.40;78.30
3416;DHT22;1721;51.238;9.562;2023-02-08T18:03:54;1.50;78.90
3416;DHT22;1721;51.238;9.562;2023-02-08T18:06:20;1.60;78.80
3416;DHT22;1721;51.238;9.562;2023-02-08T18:08:47;1.60;78.80
3416;DHT22;1721;51.238;9.562;2023-02-08T18:11:15;1.60;78.60
3416;DHT22;1721;51.238;9.562;2023-02-08T18:13:42;1.70;78.50
3416;DHT22;1721;51.238;9.562;2023-02-08T18:16:13;1.70;78.30
3416;DHT22;1721;51.238;9.562;2023-02-08T18:18:40;1.60;78.80
3416;DHT22;1721;51.238;9.562;2023-02-08T18:21:14;1.50;79.10
3416;DHT22;1721;51.238;9.562;2023-02-08T18:23:40;1.50;80.60
3416;DHT22;1721;51.238;9.562;2023-02-08T18:26:11;1.50;80.00
3416;DHT22;1721;51.238;9.562;2023-02-08T18:28:37;1.60;80.00
3416;DHT22;1721;51.238;9.562;2023-02-08T18:31:06;1.70;79.30
3416;DHT22;1721;51.238;9.562;2023-02-08T18:33:32;1.90;78.90
3416;DHT22;1721;51.238;9.562;2023-02-08T18:35:58;2.00;78.40